MDT,Max TemperatureF,Mean TemperatureF,Min TemperatureF,Max Dew PointF,MeanDew PointF,Min DewpointF,Max Humidity, Mean Humidity, Min Humidity, Max Sea Level PressureIn, Mean Sea Level PressureIn, Min Sea Level PressureIn, Max VisibilityMiles, Mean VisibilityMiles, Min VisibilityMiles, Max Wind SpeedMPH, Mean Wind SpeedMPH, Max Gust SpeedMPH,PrecipitationIn, CloudCover, Events, WindDirDegrees
2012-8-1,89,76,63,55,51,45,72,50,27,30.20,30.06,29.94,10,10,10,24,7,29,T,3,Rain-Thunderstorm,104
2012-8-2,89,76,62,53,46,32,67,41,14,30.04,29.95,29.85,10,10,10,21,6,25,0.00,0,,119
2012-8-3,95,75,54,47,40,31,72,42,12,29.94,29.84,29.73,10,10,10,29,7,37,0.00,0,,267
2012-8-4,93,73,52,42,33,27,51,31,10,29.99,29.93,29.85,10,10,10,13,3,20,0.00,0,,76
2012-8-5,95,74,53,41,36,30,51,31,11,30.12,30.03,29.96,10,10,10,18,5,23,0.00,0,,193
2012-8-6,91,78,64,52,47,40,55,38,21,30.31,30.13,30.00,10,10,10,28,7,33,0.00,1,Thunderstorm,29
2012-8-7,95,76,57,52,41,23,72,41,10,30.19,30.07,29.96,10,10,10,15,4,20,0.00,0,,43
2012-8-8,97,76,55,44,34,27,51,30,9,30.15,30.04,29.95,10,10,10,15,4,20,0.00,0,,90
2012-8-9,98,78,57,47,39,34,43,27,11,30.22,30.02,29.92,10,10,10,25,4,37,T,1,,264
2012-8-10,94,78,62,58,47,42,73,45,17,30.10,29.98,29.85,10,10,4,23,6,32,0.14,1,Rain-Thunderstorm,44
2012-8-11,87,72,57,57,49,42,87,56,25,30.13,29.99,29.91,10,10,10,26,5,32,0.00,1,Thunderstorm,151
2012-8-12,93,73,53,47,42,33,71,42,13,30.09,29.98,29.88,10,10,10,12,3,17,0.00,0,,276
2012-8-13,71,63,55,58,53,42,93,65,37,30.19,30.08,29.93,10,9,3,14,2,17,0.48,5,Rain,31
2012-8-14,85,69,52,54,50,40,100,60,20,30.25,30.05,29.88,10,9,1,15,4,18,0.00,0,,256
2012-8-15,88,71,53,50,45,38,83,50,17,29.99,29.91,29.82,10,10,9,14,3,17,0.00,0,,209
2012-8-16,91,73,54,48,42,35,77,46,15,30.01,29.92,29.82,10,10,8,23,3,32,0.00,0,,114
2012-8-17,92,76,59,46,42,36,60,38,15,30.10,29.94,29.83,10,10,8,35,5,52,T,1,Rain-Thunderstorm,34
2012-8-18,91,72,52,46,37,27,71,41,11,30.04,29.92,29.83,10,10,10,17,4,22,0.00,0,,43
2012-8-19,92,71,50,39,32,26,51,31,10,30.01,29.89,29.78,10,10,10,13,2,18,0.00,0,,77
2012-8-20,84,73,61,43,40,35,46,33,20,30.13,29.91,29.83,10,10,10,23,4,29,0.00,2,,87
2012-8-21,92,72,51,44,39,33,61,38,14,30.06,29.93,29.81,10,10,10,12,3,17,0.00,0,,97
2012-8-22,78,70,61,53,46,38,59,47,35,30.11,29.92,29.83,10,10,10,18,6,23,T,6,Rain,353
2012-8-23,79,70,60,58,54,51,90,65,39,30.09,29.94,29.81,10,9,2,16,4,21,0.25,6,Rain-Thunderstorm,229
2012-8-24,83,71,59,59,56,48,97,67,37,30.12,29.94,29.75,10,10,2,31,5,43,0.16,4,Rain-Thunderstorm,130
2012-8-25,89,70,51,52,43,28,89,51,12,30.01,29.91,29.80,10,10,10,9,2,10,0.00,0,,92
2012-8-26,92,71,49,43,38,30,66,39,11,30.07,29.97,29.90,10,10,10,14,3,26,0.00,0,,119
2012-8-27,84,72,59,56,48,41,78,54,30,30.21,30.09,29.96,10,10,6,18,4,21,0.07,2,Rain,121
2012-8-28,92,73,54,54,48,45,83,52,20,30.18,30.07,29.96,10,10,10,18,6,25,T,1,Rain-Thunderstorm,165
2012-8-29,94,74,54,49,46,41,77,47,16,30.14,29.96,29.81,10,10,10,18,5,26,0.00,0,Thunderstorm,133
2012-8-30,90,76,62,50,45,38,60,38,16,30.08,29.89,29.78,10,10,10,24,5,30,T,3,Thunderstorm,134
2012-8-31,87,70,53,55,49,41,77,49,21,30.14,29.96,29.87,10,10,5,25,5,31,0.11,3,Rain-Thunderstorm,95